sensor_id;sensor_type;location;lat;lon;timestamp;pressure;altitude;pressure_sealevel;temperature;humidity
5500;BME280;2772;42.700;23.304;2022-08-30T00:00:05;95262.03;;;22.31;100.00
5500;BME280;2772;42.700;23.304;2022-08-30T00:02:50;95260.06;;;22.31;100.00
5500;BME280;2772;42.700;23.304;2022-08-30T00:05:18;95267.41;;;22.27;100.00
5500;BME280;2772;42.700;23.304;2022-08-30T00:07:45;95272.44;;;22.25;100.00
5500;BME280;2772;42.700;23.304;2022-08-30T00:10:12;95264.69;;;22.27;100.00
5500;BME280;2772;42.700;23.304;2022-08-30T00:12:39;95271.69;;;22.28;100.00
5500;BME280;2772;42.700;23.304;2022-08-30T00:15:08;95263.91;;;22.27;100.00
5500;BME280;2772;42.700;23.304;2022-08-30T00:17:35;95261.91;;;22.20;100.00
5500;BME280;2772;42.700;23.304;2022-08-30T00:20:03;95264.63;;;22.17;100.00
5500;BME280;2772;42.700;23.304;2022-08-30T00:22:33;95261.47;;;22.11;100.00
5500;BME280;2772;42.700;23.304;2022-08-30T00:25:00;95260.72;;;22.14;100.00
5500;BME280;2772;42.700;23.304;2022-08-30T00:27:27;95256.84;;;22.15;100.00
5500;BME280;2772;42.700;23.304;2022-08-30T00:29:54;95258.00;;;22.11;100.00
5500;BME280;2772;42.700;23.304;2022-08-30T00:32:21;95249.44;;;22.09;100.00
5500;BME280;2772;42.700;23.304;2022-08-30T00:34:50;95251.75;;;22.07;100.00
5500;BME280;2772;42.700;23.304;2022-08-30T00:37:17;95256.75;;;22.01;100.00
5500;BME280;2772;42.700;23.304;2022-08-30T00:39:46;95258.69;;;22.04;100.00
5500;BME280;2772;42.700;23.304;2022-08-30T00:42:14;95260.25;;;22.05;100.00
5500;BME280;2772;42.700;23.304;2022-08-30T00:44:42;95263.38;;;22.07;100.00
5500;BME280;2772;42.700;23.304;2022-08-30T00:47:11;95260.63;;;22.04;100.00
5500;BME280;2772;42.700;23.304;2022-08-30T00:49:40;95267.69;;;22.12;100.00
5500;BME280;2772;42.700;23.304;2022-08-30T00:52:08;95267.25;;;22.10;100.00
5500;BME280;2772;42.700;23.304;2022-08-30T00:54:39;95267.22;;;22.03;100.00
5500;BME280;2772;42.700;23.304;2022-08-30T00:57:09;95269.84;;;21.95;100.00
5500;BME280;2772;42.700;23.304;2022-08-30T00:59:36;95263.31;;;22.00;100.00
5500;BME280;2772;42.700;23.304;2022-08-30T01:02:04;95269.09;;;21.98;100.00
5500;BME280;2772;42.700;23.304;2022-08-30T01:04:32;95270.22;;;21.94;100.00
5500;BME280;2772;42.700;23.304;2022-08-30T01:06:59;95266.72;;;21.90;100.00
5500;BME280;2772;42.700;23.304;2022-08-30T01:09:26;95268.22;;;21.87;100.00
5500;BME280;2772;42.700;23.304;2022-08-30T01:11:54;95257.41;;;21.91;100.00
5500;BME280;2772;42.700;23.304;2022-08-30T01:14:23;95260.88;;;21.88;100.00
5500;BME280;2772;42.700;23.304;2022-08-30T01:16:49;95252.69;;;21.81;100.00
5500;BME280;2772;42.700;23.304;2022-08-30T01:19:24;95254.66;;;21.84;100.00
5500;BME280;2772;42.700;23.304;2022-08-30T01:22:01;95264.72;;;21.83;100.00
5500;BME280;2772;42.700;23.304;2022-08-30T01:24:31;95269.69;;;21.78;100.00
5500;BME280;2772;42.700;23.304;2022-08-30T01:26:58;95257.66;;;21.75;100.00
5500;BME280;2772;42.700;23.304;2022-08-30T01:29:26;95262.63;;;21.70;100.00
5500;BME280;2772;42.700;23.304;2022-08-30T01:31:53;95266.44;;;21.65;100.00
5500;BME280;2772;42.700;23.304;2022-08-30T01:34:20;95263.00;;;21.68;100.00
5500;BME280;2772;42.700;23.304;2022-08-30T01:36:47;95260.66;;;21.67;100.00
5500;BME280;2772;42.700;23.304;2022-08-30T01:39:16;95260.25;;;21.65;100.00
5500;BME280;2772;42.700;23.304;2022-08-30T01:41:45;95264.09;;;21.64;100.00
5500;BME280;2772;42.700;23.304;2022-08-30T01:44:12;95256.59;;;21.50;100.00
5500;BME280;2772;42.700;23.304;2022-08-30T01:46:41;95253.19;;;21.57;100.00
5500;BME280;2772;42.700;23.304;2022-08-30T01:49:12;95240.97;;;21.37;100.00
5500;BME280;2772;42.700;23.304;2022-08-30T01:51:40;95245.22;;;21.38;100.00
5500;BME280;2772;42.700;23.304;2022-08-30T01:54:07;95241.63;;;21.27;100.00
5500;BME280;2772;42.700;23.304;2022-08-30T01:56:35;95238.00;;;21.16;100.00
5500;BME280;2772;42.700;23.304;2022-08-30T01:59:04;95236.03;;;21.13;100.00
5500;BME280;2772;42.700;23.304;2022-08-30T02:01:33;95232.41;;;20.98;100.00
5500;BME280;2772;42.700;23.304;2022-08-30T02:04:02;95223.72;;;20.86;100.00
5500;BME280;2772;42.700;23.304;2022-08-30T02:06:28;95224.66;;;20.97;100.00
5500;BME280;2772;42.700;23.304;2022-08-30T02:08:55;95237.03;;;20.98;100.00
5500;BME280;2772;42.700;23.304;2022-08-30T02:11:22;95223.50;;;20.98;100.00
5500;BME280;2772;42.700;23.304;2022-08-30T02:13:49;95224.56;;;20.93;100.00
5500;BME280;2772;42.700;23.304;2022-08-30T02:16:20;95227.47;;;20.78;100.00
5500;BME280;2772;42.700;23.304;2022-08-30T02:18:47;95219.63;;;20.69;100.00
5500;BME280;2772;42.700;23.304;2022-08-30T02:21:14;95223.53;;;20.72;100.00
5500;BME280;2772;42.700;23.304;2022-08-30T02:23:41;95228.97;;;20.75;100.00
5500;BME280;2772;42.700;23.304;2022-08-30T02:26:08;95232.78;;;20.71;100.00
5500;BME280;2772;42.700;23.304;2022-08-30T02:28:36;95233.19;;;20.73;100.00
5500;BME280;2772;42.700;23.304;2022-08-30T02:31:03;95228.94;;;20.72;100.00
5500;BME280;2772;42.700;23.304;2022-08-30T02:33:31;95224.28;;;20.72;100.00
5500;BME280;2772;42.700;23.304;2022-08-30T02:35:58;95226.59;;;20.70;100.00
5500;BME280;2772;42.700;23.304;2022-08-30T02:38:25;95225.50;;;20.75;100.00
5500;BME280;2772;42.700;23.304;2022-08-30T02:40:52;95224.66;;;20.71;100.00
5500;BME280;2772;42.700;23.304;2022-08-30T02:43:19;95221.94;;;20.71;100.00
5500;BME280;2772;42.700;23.304;2022-08-30T02:45:46;95223.38;;;20.61;100.00
5500;BME280;2772;42.700;23.304;2022-08-30T02:48:13;95221.44;;;20.62;100.00
5500;BME280;2772;42.700;23.304;2022-08-30T02:50:44;95224.16;;;20.62;100.00
5500;BME280;2772;42.700;23.304;2022-08-30T02:53:12;95221.13;;;20.67;100.00
5500;BME280;2772;42.700;23.304;2022-08-30T02:55:39;95217.09;;;20.54;100.00
5500;BME280;2772;42.700;23.304;2022-08-30T02:58:06;95215.63;;;20.60;100.00
5500;BME280;2772;42.700;23.304;2022-08-30T03:00:35;95215.63;;;20.60;100.00
5500;BME280;2772;42.700;23.304;2022-08-30T03:03:02;95216.84;;;20.66;100.00
5500;BME280;2772;42.700;23.304;2022-08-30T03:05:30;95212.66;;;20.68;100.00
5500;BME280;2772;42.700;23.304;2022-08-30T03:07:59;95219.78;;;20.54;100.00
5500;BME280;2772;42.700;23.304;2022-08-30T03:10:26;95220.22;;;20.56;100.00
5500;BME280;2772;42.700;23.304;2022-08-30T03:12:53;95219.44;;;20.55;100.00
5500;BME280;2772;42.700;23.304;2022-08-30T03:15:20;95222.50;;;20.54;100.00
5500;BME280;2772;42.700;23.304;2022-08-30T03:17:49;95220.47;;;20.47;100.00
5500;BME280;2772;42.700;23.304;2022-08-30T03:20:16;95230.53;;;20.47;100.00
5500;BME280;2772;42.700;23.304;2022-08-30T03:22:44;95227.34;;;20.41;100.00
5500;BME280;2772;42.700;23.304;2022-08-30T03:25:13;95228.09;;;20.38;100.00
5500;BME280;2772;42.700;23.304;2022-08-30T03:27:40;95238.81;;;20.31;100.00
5500;BME280;2772;42.700;23.304;2022-08-30T03:30:08;95226.72;;;20.25;100.00
5500;BME280;2772;42.700;23.304;2022-08-30T03:32:35;95231.31;;;20.21;100.00
5500;BME280;2772;42.700;23.304;2022-08-30T03:35:03;95227.78;;;20.17;100.00
5500;BME280;2772;42.700;23.304;2022-08-30T03:37:30;95227.72;;;20.13;100.00
5500;BME280;2772;42.700;23.304;2022-08-30T03:39:56;95227.25;;;20.11;100.00
5500;BME280;2772;42.700;23.304;2022-08-30T03:42:25;95231.00;;;20.03;100.00
5500;BME280;2772;42.700;23.304;2022-08-30T03:44:51;95225.03;;;20.13;100.00
5500;BME280;2772;42.700;23.304;2022-08-30T03:47:18;95222.59;;;20.08;100.00
5500;BME280;2772;42.700;23.304;2022-08-30T03:49:45;95227.84;;;19.98;100.00
5500;BME280;2772;42.700;23.304;2022-08-30T03:52:12;95232.69;;;20.11;100.00
5500;BME280;2772;42.700;23.304;2022-08-30T03:54:39;95225.81;;;20.14;100.00
5500;BME280;2772;42.700;23.304;2022-08-30T03:57:06;95225.34;;;20.12;100.00
5500;BME280;2772;42.700;23.304;2022-08-30T03:59:34;95231.44;;;20.05;100.00
5500;BME280;2772;42.700;23.304;2022-08-30T04:02:01;95234.06;;;20.02;100.00
5500;BME280;2772;42.700;23.304;2022-08-30T04:04:29;95225.78;;;19.91;100.00
5500;BME280;2772;42.700;23.304;2022-08-30T04:06:56;95215.22;;;19.83;100.00
5500;BME280;2772;42.700;23.304;2022-08-30T04:09:23;95221.13;;;19.88;100.00
5500;BME280;2772;42.700;23.304;2022-08-30T04:11:50;95235.09;;;19.94;100.00
5500;BME280;2772;42.700;23.304;2022-08-30T04:14:17;95232.75;;;19.92;100.00
5500;BME280;2772;42.700;23.304;2022-08-30T04:16:45;95242.25;;;20.05;100.00
5500;BME280;2772;42.700;23.304;2022-08-30T04:19:12;95223.75;;;20.07;100.00
5500;BME280;2772;42.700;23.304;2022-08-30T04:21:39;95241.44;;;20.05;100.00
5500;BME280;2772;42.700;23.304;2022-08-30T04:24:06;95232.56;;;20.04;100.00
5500;BME280;2772;42.700;23.304;2022-08-30T04:26:33;95242.47;;;19.97;100.00
5500;BME280;2772;42.700;23.304;2022-08-30T04:29:00;95247.94;;;20.00;100.00
5500;BME280;2772;42.700;23.304;2022-08-30T04:31:27;95244.00;;;19.94;100.00
5500;BME280;2772;42.700;23.304;2022-08-30T04:33:55;95247.13;;;19.96;100.00
5500;BME280;2772;42.700;23.304;2022-08-30T04:36:22;95250.59;;;19.97;100.00
5500;BME280;2772;42.700;23.304;2022-08-30T04:38:49;95240.94;;;19.96;100.00
5500;BME280;2772;42.700;23.304;2022-08-30T04:41:17;95247.75;;;20.12;100.00
5500;BME280;2772;42.700;23.304;2022-08-30T04:43:46;95257.91;;;20.15;100.00
5500;BME280;2772;42.700;23.304;2022-08-30T04:46:15;95257.28;;;20.25;100.00
5500;BME280;2772;42.700;23.304;2022-08-30T04:48:42;95256.44;;;20.21;100.00
5500;BME280;2772;42.700;23.304;2022-08-30T04:51:13;95253.94;;;20.35;100.00
5500;BME280;2772;42.700;23.304;2022-08-30T04:53:40;95252.72;;;20.29;100.00
5500;BME280;2772;42.700;23.304;2022-08-30T04:56:09;95258.16;;;20.33;100.00
5500;BME280;2772;42.700;23.304;2022-08-30T04:58:36;95270.72;;;20.22;100.00
5500;BME280;2772;42.700;23.304;2022-08-30T05:01:03;95264.97;;;20.23;100.00
5500;BME280;2772;42.700;23.304;2022-08-30T05:03:30;95268.88;;;20.26;100.00
5500;BME280;2772;42.700;23.304;2022-08-30T05:05:57;95276.34;;;20.36;100.00
5500;BME280;2772;42.700;23.304;2022-08-30T05:08:25;95271.84;;;20.43;100.00
5500;BME280;2772;42.700;23.304;2022-08-30T05:10:52;95272.63;;;20.44;100.00
5500;BME280;2772;42.700;23.304;2022-08-30T05:13:20;95277.38;;;20.51;100.00
5500;BME280;2772;42.700;23.304;2022-08-30T05:15:47;95274.22;;;20.48;100.00
5500;BME280;2772;42.700;23.304;2022-08-30T05:18:14;95278.59;;;20.57;100.00
5500;BME280;2772;42.700;23.304;2022-08-30T05:20:41;95280.19;;;20.58;100.00
5500;BME280;2772;42.700;23.304;2022-08-30T05:23:09;95281.31;;;20.57;100.00
5500;BME280;2772;42.700;23.304;2022-08-30T05:25:40;95287.16;;;20.59;100.00
5500;BME280;2772;42.700;23.304;2022-08-30T05:28:07;95281.00;;;20.62;100.00
5500;BME280;2772;42.700;23.304;2022-08-30T05:30:35;95289.25;;;20.69;100.00
5500;BME280;2772;42.700;23.304;2022-08-30T05:33:03;95285.81;;;20.72;100.00
5500;BME280;2772;42.700;23.304;2022-08-30T05:35:30;95288.59;;;20.79;100.00
5500;BME280;2772;42.700;23.304;2022-08-30T05:37:57;95286.72;;;20.83;100.00
5500;BME280;2772;42.700;23.304;2022-08-30T05:40:24;95293.28;;;20.82;100.00
5500;BME280;2772;42.700;23.304;2022-08-30T05:42:52;95284.53;;;20.92;100.00
5500;BME280;2772;42.700;23.304;2022-08-30T05:45:19;95290.69;;;20.92;100.00
5500;BME280;2772;42.700;23.304;2022-08-30T05:47:47;95293.28;;;20.82;100.00
5500;BME280;2772;42.700;23.304;2022-08-30T05:50:14;95298.06;;;20.92;100.00
5500;BME280;2772;42.700;23.304;2022-08-30T05:52:42;95295.06;;;20.97;100.00
5500;BME280;2772;42.700;23.304;2022-08-30T05:55:10;95299.78;;;21.03;100.00
5500;BME280;2772;42.700;23.304;2022-08-30T05:57:38;95291.28;;;21.05;100.00
5500;BME280;2772;42.700;23.304;2022-08-30T06:00:09;95300.63;;;21.07;100.00
5500;BME280;2772;42.700;23.304;2022-08-30T06:02:37;95303.69;;;21.06;100.00
5500;BME280;2772;42.700;23.304;2022-08-30T06:05:04;95300.31;;;21.12;100.00
5500;BME280;2772;42.700;23.304;2022-08-30T06:07:31;95302.72;;;21.21;100.00
5500;BME280;2772;42.700;23.304;2022-08-30T06:09:58;95300.91;;;21.32;100.00
5500;BME280;2772;42.700;23.304;2022-08-30T06:12:26;95297.94;;;21.40;100.00
5500;BME280;2772;42.700;23.304;2022-08-30T06:14:53;95298.78;;;21.48;100.00
5500;BME280;2772;42.700;23.304;2022-08-30T06:17:21;95299.69;;;21.59;100.00
5500;BME280;2772;42.700;23.304;2022-08-30T06:19:48;95305.97;;;21.66;100.00
5500;BME280;2772;42.700;23.304;2022-08-30T06:22:15;95309.84;;;21.69;100.00
5500;BME280;2772;42.700;23.304;2022-08-30T06:24:42;95310.59;;;21.66;100.00
5500;BME280;2772;42.700;23.304;2022-08-30T06:27:09;95315.22;;;21.62;100.00
5500;BME280;2772;42.700;23.304;2022-08-30T06:29:36;95316.16;;;21.76;100.00
5500;BME280;2772;42.700;23.304;2022-08-30T06:32:05;95316.28;;;21.54;100.00
5500;BME280;2772;42.700;23.304;2022-08-30T06:34:33;95318.66;;;21.59;100.00
5500;BME280;2772;42.700;23.304;2022-08-30T06:37:00;95320.25;;;21.63;100.00
5500;BME280;2772;42.700;23.304;2022-08-30T06:39:27;95330.78;;;21.68;100.00
5500;BME280;2772;42.700;23.304;2022-08-30T06:41:53;95328.16;;;21.75;100.00
5500;BME280;2772;42.700;23.304;2022-08-30T06:44:20;95329.38;;;21.81;100.00
5500;BME280;2772;42.700;23.304;2022-08-30T06:46:49;95336.44;;;21.89;100.00
5500;BME280;2772;42.700;23.304;2022-08-30T06:49:16;95330.31;;;21.96;100.00
5500;BME280;2772;42.700;23.304;2022-08-30T06:51:44;95335.41;;;22.01;100.00
5500;BME280;2772;42.700;23.304;2022-08-30T06:54:11;95337.44;;;22.08;100.00
5500;BME280;2772;42.700;23.304;2022-08-30T06:56:39;95333.59;;;22.12;100.00
5500;BME280;2772;42.700;23.304;2022-08-30T06:59:06;95335.34;;;21.94;100.00
5500;BME280;2772;42.700;23.304;2022-08-30T07:01:35;95339.72;;;22.06;100.00
5500;BME280;2772;42.700;23.304;2022-08-30T07:04:03;95333.81;;;21.97;100.00
5500;BME280;2772;42.700;23.304;2022-08-30T07:06:33;95334.25;;;22.02;100.00
5500;BME280;2772;42.700;23.304;2022-08-30T07:09:02;95337.53;;;22.18;100.00
5500;BME280;2772;42.700;23.304;2022-08-30T07:11:30;95328.25;;;22.23;100.00
5500;BME280;2772;42.700;23.304;2022-08-30T07:14:00;95334.47;;;22.23;100.00
5500;BME280;2772;42.700;23.304;2022-08-30T07:16:27;95342.28;;;22.32;100.00
5500;BME280;2772;42.700;23.304;2022-08-30T07:18:55;95344.56;;;22.26;100.00
5500;BME280;2772;42.700;23.304;2022-08-30T07:21:25;95347.16;;;22.16;100.00
5500;BME280;2772;42.700;23.304;2022-08-30T07:23:53;95338.28;;;22.19;100.00
5500;BME280;2772;42.700;23.304;2022-08-30T07:26:25;95341.28;;;22.07;100.00
5500;BME280;2772;42.700;23.304;2022-08-30T07:28:52;95338.66;;;22.14;100.00
5500;BME280;2772;42.700;23.304;2022-08-30T07:31:19;95347.97;;;22.16;100.00
5500;BME280;2772;42.700;23.304;2022-08-30T07:33:48;95334.34;;;22.09;100.00
5500;BME280;2772;42.700;23.304;2022-08-30T07:36:15;95333.41;;;21.94;100.00
5500;BME280;2772;42.700;23.304;2022-08-30T07:38:44;95331.13;;;22.00;100.00
5500;BME280;2772;42.700;23.304;2022-08-30T07:41:16;95345.19;;;22.09;100.00
5500;BME280;2772;42.700;23.304;2022-08-30T07:43:45;95337.53;;;22.18;100.00
5500;BME280;2772;42.700;23.304;2022-08-30T07:46:12;95331.75;;;22.23;100.00
5500;BME280;2772;42.700;23.304;2022-08-30T07:48:39;95331.50;;;22.39;100.00
5500;BME280;2772;42.700;23.304;2022-08-30T07:51:09;95333.84;;;22.40;100.00
5500;BME280;2772;42.700;23.304;2022-08-30T07:53:36;95344.78;;;22.51;100.00
5500;BME280;2772;42.700;23.304;2022-08-30T07:56:04;95337.91;;;22.60;100.00
5500;BME280;2772;42.700;23.304;2022-08-30T07:58:31;95349.22;;;22.69;100.00
5500;BME280;2772;42.700;23.304;2022-08-30T08:00:59;95355.50;;;22.80;100.00
5500;BME280;2772;42.700;23.304;2022-08-30T08:03:27;95352.81;;;22.87;100.00
5500;BME280;2772;42.700;23.304;2022-08-30T08:05:54;95353.97;;;22.83;100.00
5500;BME280;2772;42.700;23.304;2022-08-30T08:08:21;95357.84;;;22.82;100.00
5500;BME280;2772;42.700;23.304;2022-08-30T08:10:48;95364.09;;;22.89;100.00
5500;BME280;2772;42.700;23.304;2022-08-30T08:13:15;95356.63;;;22.76;100.00
5500;BME280;2772;42.700;23.304;2022-08-30T08:15:42;95353.84;;;22.69;100.00
5500;BME280;2772;42.700;23.304;2022-08-30T08:18:12;95348.56;;;22.86;100.00
5500;BME280;2772;42.700;23.304;2022-08-30T08:20:39;95350.50;;;22.89;100.00
5500;BME280;2772;42.700;23.304;2022-08-30T08:23:06;95356.78;;;22.97;100.00
5500;BME280;2772;42.700;23.304;2022-08-30T08:25:37;95366.13;;;22.99;100.00
5500;BME280;2772;42.700;23.304;2022-08-30T08:28:04;95358.63;;;22.86;100.00
5500;BME280;2772;42.700;23.304;2022-08-30T08:30:32;95355.69;;;23.08;100.00
5500;BME280;2772;42.700;23.304;2022-08-30T08:32:59;95358.16;;;23.27;100.00
5500;BME280;2772;42.700;23.304;2022-08-30T08:35:29;95361.34;;;23.40;100.00
5500;BME280;2772;42.700;23.304;2022-08-30T08:37:57;95365.31;;;23.60;100.00
5500;BME280;2772;42.700;23.304;2022-08-30T08:40:24;95365.38;;;23.81;100.00
5500;BME280;2772;42.700;23.304;2022-08-30T08:43:00;95363.81;;;23.77;100.00
5500;BME280;2772;42.700;23.304;2022-08-30T08:45:42;95363.44;;;23.82;100.00
5500;BME280;2772;42.700;23.304;2022-08-30T08:48:23;95359.94;;;23.78;100.00
5500;BME280;2772;42.700;23.304;2022-08-30T08:50:54;95368.09;;;23.78;100.00
5500;BME280;2772;42.700;23.304;2022-08-30T08:53:38;95365.03;;;23.90;100.00
5500;BME280;2772;42.700;23.304;2022-08-30T08:56:10;95365.81;;;23.94;100.00
5500;BME280;2772;42.700;23.304;2022-08-30T08:58:42;95368.94;;;23.96;100.00
5500;BME280;2772;42.700;23.304;2022-08-30T09:01:10;95368.50;;;23.83;100.00
5500;BME280;2772;42.700;23.304;2022-08-30T09:03:39;95370.09;;;23.91;100.00
5500;BME280;2772;42.700;23.304;2022-08-30T09:08:59;95372.09;;;24.15;100.00
5500;BME280;2772;42.700;23.304;2022-08-30T09:11:30;95373.69;;;24.20;100.00
5500;BME280;2772;42.700;23.304;2022-08-30T09:13:58;95375.25;;;24.21;100.00
5500;BME280;2772;42.700;23.304;2022-08-30T09:16:44;95368.66;;;24.29;100.00
5500;BME280;2772;42.700;23.304;2022-08-30T09:19:39;95367.06;;;24.28;100.00
5500;BME280;2772;42.700;23.304;2022-08-30T09:22:22;95363.56;;;24.34;100.00
5500;BME280;2772;42.700;23.304;2022-08-30T09:24:54;95367.47;;;24.30;100.00
5500;BME280;2772;42.700;23.304;2022-08-30T09:27:28;95374.09;;;24.29;100.00
5500;BME280;2772;42.700;23.304;2022-08-30T09:30:00;95379.91;;;24.24;100.00
5500;BME280;2772;42.700;23.304;2022-08-30T09:32:30;95372.53;;;24.21;100.00
5500;BME280;2772;42.700;23.304;2022-08-30T09:34:58;95374.44;;;24.20;100.00
5500;BME280;2772;42.700;23.304;2022-08-30T09:37:30;95369.03;;;24.27;100.00
5500;BME280;2772;42.700;23.304;2022-08-30T09:39:58;95365.91;;;24.29;100.00
5500;BME280;2772;42.700;23.304;2022-08-30T09:42:27;95364.34;;;24.21;100.00
5500;BME280;2772;42.700;23.304;2022-08-30T09:44:56;95367.47;;;24.23;100.00
5500;BME280;2772;42.700;23.304;2022-08-30T09:47:36;95365.13;;;24.18;100.00
5500;BME280;2772;42.700;23.304;2022-08-30T09:50:07;95358.88;;;24.14;100.00
5500;BME280;2772;42.700;23.304;2022-08-30T09:52:46;95355.78;;;24.12;100.00
5500;BME280;2772;42.700;23.304;2022-08-30T09:55:26;95353.84;;;24.23;100.00
5500;BME280;2772;42.700;23.304;2022-08-30T09:58:06;95360.81;;;24.10;100.00
5500;BME280;2772;42.700;23.304;2022-08-30T10:00:39;95351.09;;;24.12;100.00
5500;BME280;2772;42.700;23.304;2022-08-30T10:03:23;95353.06;;;24.22;100.00
5500;BME280;2772;42.700;23.304;2022-08-30T10:05:57;95351.91;;;24.20;100.00
5500;BME280;2772;42.700;23.304;2022-08-30T10:08:36;95351.13;;;24.26;100.00
5500;BME280;2772;42.700;23.304;2022-08-30T10:11:11;95347.25;;;24.38;100.00
5500;BME280;2772;42.700;23.304;2022-08-30T10:14:06;95348.03;;;24.38;100.00
5500;BME280;2772;42.700;23.304;2022-08-30T10:16:44;95346.47;;;24.41;100.00
5500;BME280;2772;42.700;23.304;2022-08-30T10:19:22;95350.75;;;24.42;100.00
5500;BME280;2772;42.700;23.304;2022-08-30T10:21:58;95342.19;;;24.47;100.00
5500;BME280;2772;42.700;23.304;2022-08-30T10:24:31;95337.53;;;24.54;100.00
5500;BME280;2772;42.700;23.304;2022-08-30T10:27:05;95332.47;;;24.56;100.00
5500;BME280;2772;42.700;23.304;2022-08-30T10:29:38;95321.97;;;24.58;100.00
5500;BME280;2772;42.700;23.304;2022-08-30T10:32:15;95324.69;;;24.51;100.00
5500;BME280;2772;42.700;23.304;2022-08-30T10:34:47;95316.13;;;24.60;100.00
5500;BME280;2772;42.700;23.304;2022-08-30T10:37:18;95319.25;;;24.62;100.00
5500;BME280;2772;42.700;23.304;2022-08-30T10:39:49;95318.09;;;24.70;100.00
5500;BME280;2772;42.700;23.304;2022-08-30T10:42:20;95320.03;;;24.83;100.00
5500;BME280;2772;42.700;23.304;2022-08-30T10:44:52;95309.09;;;25.01;100.00
5500;BME280;2772;42.700;23.304;2022-08-30T10:47:29;95311.00;;;25.15;100.00
5500;BME280;2772;42.700;23.304;2022-08-30T10:50:04;95314.47;;;25.26;100.00
5500;BME280;2772;42.700;23.304;2022-08-30T10:52:34;95320.72;;;25.33;100.00
5500;BME280;2772;42.700;23.304;2022-08-30T10:55:09;95311.34;;;25.38;100.00
5500;BME280;2772;42.700;23.304;2022-08-30T10:57:37;95311.28;;;25.52;100.00
5500;BME280;2772;42.700;23.304;2022-08-30T11:00:06;95312.00;;;25.70;100.00
5500;BME280;2772;42.700;23.304;2022-08-30T11:05:57;95305.19;;;25.99;100.00
5500;BME280;2772;42.700;23.304;2022-08-30T11:08:46;95302.00;;;26.14;100.00
5500;BME280;2772;42.700;23.304;2022-08-30T11:11:26;95300.81;;;26.15;100.00
5500;BME280;2772;42.700;23.304;2022-08-30T11:13:55;95288.13;;;26.42;100.00
5500;BME280;2772;42.700;23.304;2022-08-30T11:16:34;95293.88;;;26.59;100.00
5500;BME280;2772;42.700;23.304;2022-08-30T11:19:02;95291.03;;;26.73;100.00
5500;BME280;2772;42.700;23.304;2022-08-30T11:21:39;95297.25;;;26.73;100.00
5500;BME280;2772;42.700;23.304;2022-08-30T11:24:07;95287.97;;;26.64;100.00
5500;BME280;2772;42.700;23.304;2022-08-30T11:27:00;95285.63;;;26.66;100.00
5500;BME280;2772;42.700;23.304;2022-08-30T11:29:41;95285.56;;;26.73;100.00
5500;BME280;2772;42.700;23.304;2022-08-30T11:32:22;95276.47;;;26.83;100.00
5500;BME280;2772;42.700;23.304;2022-08-30T11:34:58;95284.25;;;26.88;100.00
5500;BME280;2772;42.700;23.304;2022-08-30T11:37:39;95278.06;;;26.80;100.00
5500;BME280;2772;42.700;23.304;2022-08-30T11:40:50;95283.16;;;26.78;100.00
5500;BME280;2772;42.700;23.304;2022-08-30T11:43:50;95277.31;;;26.76;100.00
5500;BME280;2772;42.700;23.304;2022-08-30T11:46:19;95285.06;;;26.81;100.00
5500;BME280;2772;42.700;23.304;2022-08-30T11:48:53;95282.31;;;26.85;100.00
5500;BME280;2772;42.700;23.304;2022-08-30T11:54:27;95271.28;;;26.92;100.00
5500;BME280;2772;42.700;23.304;2022-08-30T11:57:04;95262.59;;;27.04;100.00
5500;BME280;2772;42.700;23.304;2022-08-30T11:59:42;95266.41;;;27.13;100.00
5500;BME280;2772;42.700;23.304;2022-08-30T12:02:44;95260.50;;;27.15;100.00
5500;BME280;2772;42.700;23.304;2022-08-30T12:08:45;95259.69;;;27.18;99.95
5500;BME280;2772;42.700;23.304;2022-08-30T12:14:36;95260.84;;;27.17;94.64
5500;BME280;2772;42.700;23.304;2022-08-30T12:17:12;95254.25;;;27.14;89.95
5500;BME280;2772;42.700;23.304;2022-08-30T12:19:59;95236.56;;;27.26;86.67
5500;BME280;2772;42.700;23.304;2022-08-30T12:22:27;95235.69;;;27.32;82.24
5500;BME280;2772;42.700;23.304;2022-08-30T12:24:58;95241.81;;;27.43;82.16
5500;BME280;2772;42.700;23.304;2022-08-30T12:27:27;95233.09;;;27.52;83.27
5500;BME280;2772;42.700;23.304;2022-08-30T12:29:58;95233.63;;;27.70;77.30
5500;BME280;2772;42.700;23.304;2022-08-30T12:32:28;95228.78;;;27.81;77.77
5500;BME280;2772;42.700;23.304;2022-08-30T12:34:56;95225.56;;;27.89;78.98
5500;BME280;2772;42.700;23.304;2022-08-30T12:37:26;95208.97;;;28.00;80.69
5500;BME280;2772;42.700;23.304;2022-08-30T12:40:03;95215.50;;;28.06;82.42
5500;BME280;2772;42.700;23.304;2022-08-30T12:42:31;95221.72;;;28.10;85.20
5500;BME280;2772;42.700;23.304;2022-08-30T12:45:06;95213.81;;;27.89;83.87
5500;BME280;2772;42.700;23.304;2022-08-30T12:47:40;95210.69;;;27.87;79.54
5500;BME280;2772;42.700;23.304;2022-08-30T12:50:15;95209.59;;;27.81;78.59
5500;BME280;2772;42.700;23.304;2022-08-30T12:52:44;95209.13;;;27.89;78.31
5500;BME280;2772;42.700;23.304;2022-08-30T12:55:14;95206.81;;;27.84;70.43
5500;BME280;2772;42.700;23.304;2022-08-30T12:57:44;95202.03;;;27.92;78.09
5500;BME280;2772;42.700;23.304;2022-08-30T13:00:25;95194.91;;;27.98;79.66
5500;BME280;2772;42.700;23.304;2022-08-30T13:02:53;95213.25;;;28.01;79.13
5500;BME280;2772;42.700;23.304;2022-08-30T13:05:41;95203.81;;;28.06;77.45
5500;BME280;2772;42.700;23.304;2022-08-30T13:08:18;95207.25;;;28.10;75.64
5500;BME280;2772;42.700;23.304;2022-08-30T13:10:51;95209.16;;;28.13;71.96
5500;BME280;2772;42.700;23.304;2022-08-30T13:13:35;95211.22;;;28.05;66.59
5500;BME280;2772;42.700;23.304;2022-08-30T13:16:21;95212.13;;;27.99;70.79
5500;BME280;2772;42.700;23.304;2022-08-30T13:18:50;95208.66;;;27.95;75.46
5500;BME280;2772;42.700;23.304;2022-08-30T13:21:24;95203.66;;;27.86;76.98
5500;BME280;2772;42.700;23.304;2022-08-30T13:23:55;95201.38;;;27.81;77.61
5500;BME280;2772;42.700;23.304;2022-08-30T13:26:23;95203.78;;;27.79;74.56
5500;BME280;2772;42.700;23.304;2022-08-30T13:28:52;95193.88;;;27.88;73.58
5500;BME280;2772;42.700;23.304;2022-08-30T13:31:21;95205.94;;;27.95;75.92
5500;BME280;2772;42.700;23.304;2022-08-30T13:33:48;95190.66;;;27.93;77.10